createdAt,value
2018-05-08T00:00:07.202Z,5.03
2018-05-08T00:02:42.157Z,6.13
2018-05-08T00:05:16.997Z,5.03
2018-05-08T00:07:51.625Z,5.20
2018-05-08T00:10:26.450Z,6.60
2018-05-08T00:13:02.000Z,5.90
2018-05-08T00:15:36.729Z,5.60
2018-05-08T00:18:11.338Z,6.80
2018-05-08T00:20:46.095Z,5.57
2018-05-08T00:23:20.891Z,5.93
2018-05-08T00:25:56.578Z,5.97
2018-05-08T00:28:31.157Z,6.23
2018-05-08T00:31:05.842Z,6.23
2018-05-08T00:33:40.600Z,7.37
2018-05-08T00:36:15.494Z,7.50
2018-05-08T00:38:50.277Z,6.83
2018-05-08T00:41:24.857Z,6.97
2018-05-08T00:43:59.537Z,6.60
2018-05-08T00:46:34.269Z,6.30
2018-05-08T00:49:09.021Z,6.33
2018-05-08T00:51:43.740Z,6.30
2018-05-08T00:54:18.593Z,6.80
2018-05-08T00:56:53.121Z,7.57
2018-05-08T00:59:27.635Z,7.60
2018-05-08T01:02:02.393Z,7.00
2018-05-08T01:04:37.114Z,6.47
2018-05-08T01:07:11.838Z,7.07
2018-05-08T01:09:46.717Z,6.80
2018-05-08T01:12:21.593Z,7.07
2018-05-08T01:14:56.529Z,7.70
2018-05-08T01:17:31.178Z,8.10
2018-05-08T01:20:05.962Z,8.17
2018-05-08T01:22:40.588Z,7.97
2018-05-08T01:25:15.217Z,8.10
2018-05-08T01:27:49.941Z,9.00
2018-05-08T01:30:24.673Z,8.77
2018-05-08T01:32:59.627Z,8.50
2018-05-08T01:35:34.442Z,8.50
2018-05-08T01:38:09.206Z,8.37
2018-05-08T01:40:43.764Z,8.93
2018-05-08T01:43:18.595Z,8.60
2018-05-08T01:45:53.120Z,10.67
2018-05-08T01:48:27.587Z,9.40
2018-05-08T01:51:02.509Z,10.13
2018-05-08T01:53:37.254Z,8.90
2018-05-08T01:56:12.009Z,8.77
2018-05-08T01:58:47.014Z,10.40
2018-05-08T02:01:21.701Z,10.43
2018-05-08T02:03:56.461Z,9.60
2018-05-08T02:06:31.309Z,10.33
2018-05-08T02:09:05.449Z,9.30
2018-05-08T02:11:40.673Z,10.33
2018-05-08T02:14:15.453Z,8.47
2018-05-08T02:16:49.889Z,9.67
2018-05-08T02:19:24.833Z,9.73
2018-05-08T02:21:59.714Z,8.33
2018-05-08T02:24:34.487Z,8.80
2018-05-08T02:27:09.365Z,16.13
2018-05-08T02:29:44.074Z,11.83
2018-05-08T02:32:18.803Z,8.87
2018-05-08T02:34:53.677Z,9.53
2018-05-08T02:37:28.355Z,11.23
2018-05-08T02:40:03.129Z,10.40
2018-05-08T02:42:38.110Z,9.50
2018-05-08T02:45:12.949Z,10.10
2018-05-08T02:47:47.505Z,9.70
2018-05-08T02:50:22.401Z,11.03
2018-05-08T02:52:56.942Z,9.70
2018-05-08T02:55:32.058Z,9.70
2018-05-08T02:58:06.805Z,10.43
2018-05-08T03:00:41.622Z,10.53
2018-05-08T03:03:16.411Z,9.43
2018-05-08T03:05:51.245Z,13.87
2018-05-08T03:08:26.124Z,10.07
2018-05-08T03:11:00.651Z,10.40
2018-05-08T03:13:35.969Z,10.73
2018-05-08T03:16:10.966Z,11.73
2018-05-08T03:18:45.514Z,9.90
2018-05-08T03:21:20.370Z,10.00
2018-05-08T03:23:55.834Z,9.60
2018-05-08T03:26:31.228Z,10.23
2018-05-08T03:29:06.006Z,10.17
2018-05-08T03:31:40.681Z,10.70
2018-05-08T03:34:15.613Z,11.07
2018-05-08T03:36:50.401Z,10.30
2018-05-08T03:39:25.229Z,10.93
2018-05-08T03:42:00.157Z,10.20
2018-05-08T03:44:34.961Z,9.27
2018-05-08T03:47:09.794Z,10.00
2018-05-08T03:49:44.441Z,9.80
2018-05-08T03:52:19.248Z,8.80
2018-05-08T03:54:53.844Z,9.40
2018-05-08T03:57:28.706Z,9.53
2018-05-08T04:00:03.357Z,8.80
2018-05-08T04:02:49.346Z,9.00
2018-05-08T04:05:35.825Z,9.50
2018-05-08T04:08:21.500Z,9.30
2018-05-08T04:10:56.245Z,9.47
2018-05-08T04:13:31.049Z,10.23
2018-05-08T04:16:05.927Z,8.57
2018-05-08T04:18:40.568Z,9.73
2018-05-08T04:21:15.254Z,9.20
2018-05-08T04:23:50.017Z,9.33
2018-05-08T04:26:24.846Z,9.03
2018-05-08T04:28:59.802Z,9.63
2018-05-08T04:31:34.501Z,9.33
2018-05-08T04:34:09.433Z,9.60
2018-05-08T04:36:44.786Z,8.93
2018-05-08T04:39:19.925Z,9.27
2018-05-08T04:41:54.534Z,9.37
2018-05-08T04:44:29.172Z,11.37
2018-05-08T04:47:03.861Z,8.50
2018-05-08T04:49:38.617Z,9.00
2018-05-08T04:52:13.282Z,8.33
2018-05-08T04:54:47.846Z,9.93
2018-05-08T04:57:22.790Z,9.43
2018-05-08T04:59:57.433Z,9.67
2018-05-08T05:02:32.274Z,9.00
2018-05-08T05:05:07.002Z,10.27
2018-05-08T05:07:41.829Z,7.83
2018-05-08T05:10:16.672Z,8.70
2018-05-08T05:12:51.381Z,7.90
2018-05-08T05:15:26.025Z,8.73
2018-05-08T05:18:00.602Z,7.97
2018-05-08T05:20:35.514Z,11.53
2018-05-08T05:23:10.114Z,10.57
2018-05-08T05:25:44.801Z,7.60
2018-05-08T05:28:19.585Z,8.30
2018-05-08T05:30:54.321Z,9.90
2018-05-08T05:33:28.901Z,8.93
2018-05-08T05:36:03.653Z,7.87
2018-05-08T05:38:38.381Z,8.17
2018-05-08T05:41:12.649Z,7.80
2018-05-08T05:43:47.285Z,8.77
2018-05-08T05:46:22.195Z,7.83
2018-05-08T05:48:57.086Z,9.70
2018-05-08T05:51:31.804Z,7.43
2018-05-08T05:54:06.658Z,8.80
2018-05-08T05:56:41.358Z,7.57
2018-05-08T05:59:16.281Z,9.77
2018-05-08T06:01:50.901Z,7.93
2018-05-08T06:04:25.691Z,6.97
2018-05-08T06:07:00.506Z,7.33
2018-05-08T06:09:35.315Z,7.03
2018-05-08T06:12:10.659Z,7.80
2018-05-08T06:14:45.425Z,8.53
2018-05-08T06:17:20.422Z,8.00
2018-05-08T06:19:56.079Z,7.60
2018-05-08T06:22:30.578Z,6.67
2018-05-08T06:25:05.088Z,7.30
2018-05-08T06:27:40.181Z,8.10
2018-05-08T06:30:14.878Z,6.13
2018-05-08T06:32:49.609Z,7.13
2018-05-08T06:35:24.482Z,14.50
2018-05-08T06:37:59.095Z,6.63
2018-05-08T06:40:34.017Z,5.97
2018-05-08T06:43:08.550Z,6.37
2018-05-08T06:45:43.297Z,7.13
2018-05-08T06:48:18.110Z,6.03
2018-05-08T06:50:52.730Z,7.40
2018-05-08T06:53:27.534Z,6.30
2018-05-08T06:56:03.038Z,6.97
2018-05-08T06:58:37.822Z,6.97
2018-05-08T07:01:12.777Z,6.33
2018-05-08T07:03:47.505Z,6.13
2018-05-08T07:06:22.182Z,6.13
2018-05-08T07:08:56.998Z,5.90
2018-05-08T07:11:31.382Z,8.20
2018-05-08T07:14:05.979Z,6.53
2018-05-08T07:16:40.819Z,6.30
2018-05-08T07:19:15.501Z,6.87
2018-05-08T07:21:50.194Z,6.90
2018-05-08T07:24:24.691Z,8.03
2018-05-08T07:26:59.651Z,6.40
2018-05-08T07:29:34.345Z,8.03
2018-05-08T07:32:09.098Z,5.70
2018-05-08T07:34:43.858Z,5.73
2018-05-08T07:37:18.469Z,6.47
2018-05-08T07:39:53.099Z,6.20
2018-05-08T07:42:27.703Z,5.33
2018-05-08T07:45:02.441Z,4.90
2018-05-08T07:47:37.030Z,5.30
2018-05-08T07:50:11.801Z,4.50
2018-05-08T07:52:46.249Z,5.10
2018-05-08T07:55:21.037Z,5.03
2018-05-08T07:57:55.574Z,5.47
2018-05-08T08:00:30.329Z,5.97
2018-05-08T08:03:04.671Z,5.13
2018-05-08T08:05:39.674Z,5.23
2018-05-08T08:08:14.210Z,6.33
2018-05-08T08:10:49.014Z,4.47
2018-05-08T08:13:23.798Z,4.23
2018-05-08T08:15:58.667Z,4.10
2018-05-08T08:18:33.333Z,4.37
2018-05-08T08:21:07.895Z,4.50
2018-05-08T08:23:43.032Z,4.77
2018-05-08T08:26:17.842Z,7.80
2018-05-08T08:28:52.648Z,4.33
2018-05-08T08:31:27.399Z,4.70
2018-05-08T08:34:02.098Z,4.30
2018-05-08T08:36:36.894Z,4.23
2018-05-08T08:39:11.410Z,6.20
2018-05-08T08:41:46.653Z,4.27
2018-05-08T08:44:21.669Z,5.90
2018-05-08T08:46:56.445Z,4.30
2018-05-08T08:49:30.765Z,8.47
2018-05-08T08:52:05.453Z,5.00
2018-05-08T08:54:40.260Z,4.00
2018-05-08T08:57:14.969Z,5.13
2018-05-08T08:59:49.602Z,5.37
2018-05-08T09:02:24.183Z,4.40
2018-05-08T09:04:58.954Z,9.03
2018-05-08T09:07:33.861Z,4.80
2018-05-08T09:10:08.586Z,5.43
2018-05-08T09:12:43.365Z,5.23
2018-05-08T09:15:18.045Z,8.43
2018-05-08T09:17:52.853Z,5.20
2018-05-08T09:20:27.598Z,4.60
2018-05-08T09:23:02.073Z,5.57
2018-05-08T09:25:37.009Z,4.87
2018-05-08T09:28:14.903Z,5.30
2018-05-08T09:30:49.806Z,4.60
2018-05-08T09:33:24.699Z,5.33
2018-05-08T09:35:59.557Z,4.80
2018-05-08T09:38:34.310Z,4.47
2018-05-08T09:41:09.157Z,5.97
2018-05-08T09:43:44.046Z,4.63
2018-05-08T09:46:18.976Z,5.43
2018-05-08T09:48:53.754Z,4.70
2018-05-08T09:51:28.546Z,5.27
2018-05-08T09:54:03.357Z,5.77
2018-05-08T09:56:38.226Z,5.50
2018-05-08T09:59:13.170Z,6.30
2018-05-08T10:01:47.626Z,5.90
2018-05-08T10:04:22.440Z,5.00
2018-05-08T10:06:57.217Z,8.13
2018-05-08T10:09:31.836Z,4.80
2018-05-08T10:12:06.680Z,5.77
2018-05-08T10:14:41.545Z,6.07
2018-05-08T10:17:16.237Z,4.70
2018-05-08T10:19:51.094Z,4.97
2018-05-08T10:22:25.995Z,3.90
2018-05-08T10:25:00.822Z,4.97
2018-05-08T10:27:35.762Z,4.13
2018-05-08T10:30:10.414Z,2.63
2018-05-08T10:32:45.250Z,4.10
2018-05-08T10:35:20.101Z,2.93
2018-05-08T10:37:55.638Z,3.07
2018-05-08T10:40:30.297Z,2.70
2018-05-08T10:43:04.802Z,2.17
2018-05-08T10:45:39.994Z,2.97
2018-05-08T10:48:14.722Z,3.83
2018-05-08T10:50:49.709Z,3.20
2018-05-08T10:53:24.490Z,4.20
2018-05-08T10:55:59.317Z,2.60
2018-05-08T10:58:34.041Z,2.63
2018-05-08T11:01:09.090Z,2.87
2018-05-08T11:03:43.800Z,2.60
2018-05-08T11:06:18.725Z,3.00
2018-05-08T11:08:53.501Z,2.20
2018-05-08T11:11:28.181Z,2.50
2018-05-08T11:14:02.917Z,2.40
2018-05-08T11:16:37.932Z,2.60
2018-05-08T11:19:12.720Z,2.20
2018-05-08T11:21:47.392Z,1.90
2018-05-08T11:24:22.137Z,1.93
2018-05-08T11:26:56.878Z,3.00
2018-05-08T11:29:31.693Z,2.20
2018-05-08T11:32:06.510Z,2.37
2018-05-08T11:34:41.374Z,2.53
2018-05-08T11:37:16.310Z,2.70
2018-05-08T11:39:51.230Z,3.47
2018-05-08T11:42:26.072Z,6.23
2018-05-08T11:45:00.686Z,3.97
2018-05-08T11:47:35.801Z,3.60
2018-05-08T11:50:10.181Z,3.50
2018-05-08T11:52:45.100Z,4.27
2018-05-08T11:55:19.849Z,5.37
2018-05-08T11:57:54.597Z,3.67
2018-05-08T12:00:30.058Z,5.60
2018-05-08T12:03:05.393Z,3.77
2018-05-08T12:05:41.148Z,4.57
2018-05-08T12:08:15.505Z,4.23
2018-05-08T12:10:50.417Z,3.90
2018-05-08T12:13:25.137Z,3.80
2018-05-08T12:16:00.093Z,4.47
2018-05-08T12:18:34.923Z,4.07
2018-05-08T12:21:09.410Z,4.13
2018-05-08T12:23:44.387Z,4.07
2018-05-08T12:26:19.029Z,3.93
2018-05-08T12:28:53.918Z,4.63
2018-05-08T12:31:28.844Z,5.37
2018-05-08T12:34:03.598Z,4.20
2018-05-08T12:36:38.422Z,6.97
2018-05-08T12:39:13.154Z,3.70
2018-05-08T12:41:47.902Z,3.23
2018-05-08T12:44:22.737Z,3.57
2018-05-08T12:46:57.250Z,3.80
2018-05-08T12:49:32.266Z,4.07
2018-05-08T12:52:06.785Z,3.93
2018-05-08T12:54:41.642Z,3.40
2018-05-08T12:57:16.498Z,4.20
2018-05-08T12:59:51.190Z,6.90
2018-05-08T13:02:26.238Z,3.37
2018-05-08T13:05:00.749Z,3.57
2018-05-08T13:07:35.664Z,3.13
2018-05-08T13:10:10.382Z,3.60
2018-05-08T13:12:45.349Z,4.00
2018-05-08T13:15:20.283Z,4.03
2018-05-08T13:17:55.005Z,3.80
2018-05-08T13:20:29.842Z,4.23
2018-05-08T13:23:04.616Z,4.33
2018-05-08T13:25:39.501Z,4.00
2018-05-08T13:28:14.397Z,4.07
2018-05-08T13:30:49.336Z,3.97
2018-05-08T13:33:24.025Z,3.60
2018-05-08T13:35:59.124Z,3.43
2018-05-08T13:38:33.952Z,4.20
2018-05-08T13:41:08.805Z,4.10
2018-05-08T13:43:43.367Z,2.87
2018-05-08T13:46:18.089Z,3.30
2018-05-08T13:48:52.780Z,6.37
2018-05-08T13:51:27.626Z,3.80
2018-05-08T13:54:02.478Z,3.87
2018-05-08T13:56:37.117Z,4.13
2018-05-08T13:59:12.089Z,3.67
2018-05-08T14:01:46.936Z,3.13
2018-05-08T14:04:21.780Z,5.83
2018-05-08T14:06:56.711Z,4.23
2018-05-08T14:09:31.525Z,4.67
2018-05-08T14:12:06.043Z,3.50
2018-05-08T14:14:41.133Z,3.30
2018-05-08T14:17:15.685Z,3.70
2018-05-08T14:19:50.385Z,3.90
2018-05-08T14:22:25.165Z,3.20
2018-05-08T14:25:00.140Z,4.07
2018-05-08T14:27:34.831Z,4.87
2018-05-08T14:30:09.638Z,3.40
2018-05-08T14:32:44.386Z,4.20
2018-05-08T14:35:19.218Z,3.53
2018-05-08T14:37:54.276Z,4.00
2018-05-08T14:40:28.453Z,3.90
2018-05-08T14:43:03.626Z,4.17
2018-05-08T14:45:38.257Z,3.30
2018-05-08T14:48:13.079Z,4.70
2018-05-08T14:50:47.921Z,3.67
2018-05-08T14:53:22.690Z,3.93
2018-05-08T14:55:57.454Z,3.20
2018-05-08T14:58:32.398Z,4.13
2018-05-08T15:01:07.132Z,8.67
2018-05-08T15:03:41.832Z,3.77
2018-05-08T15:06:16.514Z,2.97
2018-05-08T15:08:51.214Z,3.33
2018-05-08T15:11:25.676Z,3.47
2018-05-08T15:14:00.717Z,3.00
2018-05-08T15:16:35.503Z,3.50
2018-05-08T15:19:10.410Z,3.10
2018-05-08T15:21:45.434Z,3.53
2018-05-08T15:24:20.577Z,3.30
2018-05-08T15:26:55.979Z,4.10
2018-05-08T15:29:30.961Z,3.33
2018-05-08T15:32:05.833Z,3.13
2018-05-08T15:34:40.884Z,3.30
2018-05-08T15:37:15.646Z,4.60
2018-05-08T15:39:50.454Z,5.03
2018-05-08T15:42:25.460Z,3.20
2018-05-08T15:45:00.258Z,4.77
2018-05-08T15:47:34.990Z,3.07
2018-05-08T15:50:09.716Z,3.00
2018-05-08T15:52:44.775Z,6.53
2018-05-08T15:55:19.547Z,3.80
2018-05-08T15:57:54.323Z,4.50
2018-05-08T16:00:29.166Z,3.13
2018-05-08T16:03:04.017Z,5.27
2018-05-08T16:05:40.225Z,3.37
2018-05-08T16:08:14.841Z,2.80
2018-05-08T16:10:49.534Z,3.37
2018-05-08T16:13:24.658Z,2.70
2018-05-08T16:15:59.281Z,3.90
2018-05-08T16:18:34.053Z,3.20
2018-05-08T16:21:08.661Z,4.80
2018-05-08T16:23:43.365Z,2.90
2018-05-08T16:26:18.074Z,2.20
2018-05-08T16:28:52.921Z,4.37
2018-05-08T16:31:27.755Z,6.50
2018-05-08T16:34:02.677Z,3.20
2018-05-08T16:36:37.394Z,2.93
2018-05-08T16:39:12.234Z,4.50
2018-05-08T16:41:47.074Z,2.83
2018-05-08T16:44:22.045Z,3.40
2018-05-08T16:46:56.657Z,7.50
2018-05-08T16:49:31.391Z,3.10
2018-05-08T16:52:06.481Z,2.60
2018-05-08T16:54:41.280Z,2.63
2018-05-08T16:57:16.155Z,2.40
2018-05-08T16:59:51.138Z,2.80
2018-05-08T17:02:26.058Z,3.10
2018-05-08T17:05:00.853Z,3.13
2018-05-08T17:07:35.649Z,2.47
2018-05-08T17:10:10.449Z,5.10
2018-05-08T17:12:45.269Z,3.50
2018-05-08T17:15:20.036Z,2.67
2018-05-08T17:17:54.529Z,3.37
2018-05-08T17:20:29.316Z,3.60
2018-05-08T17:23:04.018Z,2.30
2018-05-08T17:25:38.799Z,2.20
2018-05-08T17:28:13.619Z,5.13
2018-05-08T17:30:48.353Z,2.97
2018-05-08T17:33:23.117Z,2.63
2018-05-08T17:35:58.638Z,3.50
2018-05-08T17:38:33.602Z,3.93
2018-05-08T17:41:09.198Z,3.23
2018-05-08T17:43:44.257Z,2.90
2018-05-08T17:46:18.954Z,2.97
2018-05-08T17:48:53.809Z,6.60
2018-05-08T17:51:28.746Z,4.80
2018-05-08T17:54:03.586Z,3.60
2018-05-08T17:56:39.967Z,3.43
2018-05-08T17:59:14.642Z,3.13
2018-05-08T18:01:49.981Z,7.27
2018-05-08T18:04:25.246Z,3.10
2018-05-08T18:07:00.357Z,5.63
2018-05-08T18:09:35.636Z,3.87
2018-05-08T18:12:10.571Z,3.13
2018-05-08T18:14:45.441Z,3.67
2018-05-08T18:17:20.194Z,3.63
2018-05-08T18:19:55.369Z,5.30
2018-05-08T18:22:30.669Z,4.73
2018-05-08T18:25:05.290Z,3.93
2018-05-08T18:27:40.274Z,5.00
2018-05-08T18:30:15.095Z,10.00
2018-05-08T18:32:49.668Z,4.00
2018-05-08T18:35:24.563Z,3.50
2018-05-08T18:37:59.341Z,3.80
2018-05-08T18:40:34.325Z,5.30
2018-05-08T18:43:09.197Z,5.10
2018-05-08T18:45:43.545Z,4.60
2018-05-08T18:48:18.588Z,3.77
2018-05-08T18:50:53.438Z,4.27
2018-05-08T18:53:28.146Z,3.90
2018-05-08T18:56:02.997Z,4.70
2018-05-08T18:58:37.883Z,5.20
2018-05-08T19:01:12.525Z,5.20
2018-05-08T19:03:48.369Z,5.67
2018-05-08T19:06:24.187Z,3.83
2018-05-08T19:08:58.631Z,3.47
2018-05-08T19:11:39.010Z,3.67
2018-05-08T19:14:13.641Z,4.00
2018-05-08T19:16:48.905Z,10.03
2018-05-08T19:19:29.675Z,4.40
2018-05-08T19:22:04.844Z,3.60
2018-05-08T19:24:39.817Z,3.80
2018-05-08T19:27:15.094Z,6.10
2018-05-08T19:29:55.733Z,6.43
2018-05-08T19:32:30.553Z,3.87
2018-05-08T19:35:11.045Z,3.60
2018-05-08T19:37:51.377Z,3.80
2018-05-08T19:40:26.838Z,8.03
2018-05-08T19:43:01.994Z,4.43
2018-05-08T19:45:36.849Z,6.40
2018-05-08T19:48:11.557Z,18.33
2018-05-08T19:50:45.907Z,3.97
2018-05-08T19:53:21.205Z,4.70
2018-05-08T19:55:55.847Z,12.13
2018-05-08T19:58:31.250Z,4.50
2018-05-08T20:01:05.323Z,5.70
2018-05-08T20:03:40.549Z,5.40
2018-05-08T20:06:15.421Z,4.37
2018-05-08T20:08:50.338Z,8.27
2018-05-08T20:11:25.066Z,4.43
2018-05-08T20:14:00.091Z,4.87
2018-05-08T20:16:35.301Z,4.70
2018-05-08T20:19:10.483Z,6.10
2018-05-08T20:21:45.205Z,5.70
2018-05-08T20:24:20.329Z,5.00
2018-05-08T20:26:55.210Z,4.47
2018-05-08T20:29:30.109Z,4.30
2018-05-08T20:32:05.030Z,5.13
2018-05-08T20:34:39.969Z,7.53
2018-05-08T20:37:15.083Z,5.13
2018-05-08T20:39:50.073Z,4.73
2018-05-08T20:42:24.833Z,3.97
2018-05-08T20:44:59.818Z,6.87
2018-05-08T20:47:35.321Z,4.60
2018-05-08T20:50:10.166Z,4.77
2018-05-08T20:52:45.353Z,4.23
2018-05-08T20:55:19.561Z,4.93
2018-05-08T20:57:54.760Z,4.50
2018-05-08T21:00:29.709Z,5.40
2018-05-08T21:03:04.312Z,5.33
2018-05-08T21:05:39.412Z,6.60
2018-05-08T21:08:14.326Z,8.20
2018-05-08T21:10:49.240Z,5.00
2018-05-08T21:13:24.749Z,4.70
2018-05-08T21:15:59.553Z,4.07
2018-05-08T21:18:34.263Z,4.60
2018-05-08T21:21:08.961Z,4.57
2018-05-08T21:23:43.882Z,3.90
2018-05-08T21:26:18.813Z,4.90
2018-05-08T21:28:59.257Z,4.33
2018-05-08T21:31:33.719Z,5.80
2018-05-08T21:34:08.755Z,5.10
2018-05-08T21:36:43.877Z,5.30
2018-05-08T21:39:18.728Z,5.27
2018-05-08T21:41:53.634Z,4.63
2018-05-08T21:44:28.583Z,6.73
2018-05-08T21:47:03.627Z,6.77
2018-05-08T21:49:38.703Z,6.60
2018-05-08T21:52:13.246Z,4.13
2018-05-08T21:54:48.329Z,7.00
2018-05-08T21:57:23.534Z,5.37
2018-05-08T21:59:58.291Z,4.77
2018-05-08T22:02:33.113Z,5.57
2018-05-08T22:05:08.046Z,4.93
2018-05-08T22:07:43.007Z,5.13
2018-05-08T22:10:18.035Z,7.03
2018-05-08T22:12:52.840Z,5.53
2018-05-08T22:15:28.210Z,5.80
2018-05-08T22:18:03.123Z,7.80
2018-05-08T22:20:37.862Z,8.13
2018-05-08T22:23:12.859Z,7.90
2018-05-08T22:25:47.339Z,5.93
2018-05-08T22:28:22.642Z,6.37
2018-05-08T22:30:57.611Z,5.60
2018-05-08T22:33:32.419Z,7.20
2018-05-08T22:36:07.267Z,5.90
2018-05-08T22:38:42.098Z,6.00
2018-05-08T22:41:17.227Z,6.40
2018-05-08T22:43:52.359Z,6.77
2018-05-08T22:46:27.530Z,5.97
2018-05-08T22:49:02.420Z,6.30
2018-05-08T22:51:37.983Z,5.97
2018-05-08T22:54:13.082Z,5.90
2018-05-08T22:56:48.014Z,6.03
2018-05-08T22:59:22.935Z,7.43
2018-05-08T23:01:58.137Z,7.57
2018-05-08T23:04:33.075Z,6.93
2018-05-08T23:07:07.370Z,11.53
2018-05-08T23:09:42.197Z,8.70
2018-05-08T23:12:16.986Z,6.20
2018-05-08T23:14:51.987Z,7.23
2018-05-08T23:17:26.700Z,6.67
2018-05-08T23:20:01.433Z,6.07
2018-05-08T23:22:36.174Z,6.70
2018-05-08T23:25:11.486Z,10.00
2018-05-08T23:27:46.407Z,5.90
2018-05-08T23:30:20.847Z,7.07
2018-05-08T23:32:55.754Z,7.53
2018-05-08T23:35:30.417Z,7.07
2018-05-08T23:38:05.066Z,8.40
2018-05-08T23:40:39.995Z,6.60
2018-05-08T23:43:14.817Z,7.73
2018-05-08T23:45:49.551Z,6.37
2018-05-08T23:48:24.762Z,7.10
2018-05-08T23:50:59.623Z,8.03
2018-05-08T23:53:34.648Z,7.03
2018-05-08T23:56:09.860Z,6.97
2018-05-08T23:58:45.130Z,6.60
